Time;durP1;ratioP1;P1;durP2;ratioP2;P2;SDS_P1;SDS_P2;PMS_P1;PMS_P2;Temp;Humidity;BMP_temperature;BMP_pressure;BME280_temperature;BME280_humidity;BME280_pressure;Samples;Min_cycle;Max_cycle;Signal;HPM_P1;HPM_P2
2020/12/17 00:00:49;;;;;;;13.27;1.50;;;;;;;10.26;100.00;101137.28;5090504;28;20046;-68
2020/12/17 00:03:14;;;;;;;15.35;2.15;;;;;;;10.23;100.00;101138.53;5090256;28;20032;-67
2020/12/17 00:05:40;;;;;;;15.15;2.17;;;;;;;10.23;100.00;101145.91;5090564;28;20062;-69
2020/12/17 00:08:05;;;;;;;15.60;1.75;;;;;;;10.21;100.00;101150.75;5090422;28;20040;-68
2020/12/17 00:10:31;;;;;;;17.55;1.77;;;;;;;10.23;100.00;101148.63;5090304;28;20040;-69
2020/12/17 00:12:57;;;;;;;13.02;2.00;;;;;;;10.23;100.00;101154.09;5090257;28;20389;-68
2020/12/17 00:15:22;;;;;;;18.02;2.33;;;;;;;10.22;100.00;101153.25;5090457;28;20121;-68
2020/12/17 00:17:50;;;;;;;20.05;2.78;;;;;;;10.24;100.00;101161.25;5089959;28;20040;-68
2020/12/17 00:20:19;;;;;;;19.42;2.80;;;;;;;10.24;100.00;101169.44;5090348;28;20036;-67
2020/12/17 00:22:45;;;;;;;14.23;1.70;;;;;;;10.23;100.00;101171.28;5088888;28;20089;-69
2020/12/17 00:25:12;;;;;;;20.13;2.65;;;;;;;10.23;100.00;101165.00;5093737;28;20031;-68
2020/12/17 00:27:39;;;;;;;16.75;2.55;;;;;;;10.23;100.00;101170.47;5093839;28;20085;-68
2020/12/17 00:30:13;;;;;;;19.25;2.17;;;;;;;10.23;100.00;101173.19;5093888;28;20040;-68
2020/12/17 00:32:40;;;;;;;17.90;2.75;;;;;;;10.23;100.00;101181.38;5093512;28;20040;-68
2020/12/17 00:35:07;;;;;;;23.02;2.10;;;;;;;10.21;100.00;101172.59;5093765;28;20128;-68
2020/12/17 00:37:34;;;;;;;19.65;3.15;;;;;;;10.18;100.00;101184.78;5092465;28;20043;-68
2020/12/17 00:40:02;;;;;;;24.85;3.63;;;;;;;10.15;100.00;101170.78;5093554;28;20092;-68
2020/12/17 00:42:28;;;;;;;16.48;2.97;;;;;;;10.13;100.00;101175.63;5093521;28;20042;-68
2020/12/17 00:44:53;;;;;;;24.90;3.08;;;;;;;10.10;100.00;101170.63;5093521;28;20036;-68
2020/12/17 00:47:19;;;;;;;30.60;3.70;;;;;;;10.07;100.00;101171.09;5093459;28;20079;-68
2020/12/17 00:49:45;;;;;;;27.90;2.95;;;;;;;10.05;100.00;101178.66;5093205;28;20056;-68
2020/12/17 00:52:11;;;;;;;22.05;2.75;;;;;;;10.03;100.00;101180.78;5093394;28;20040;-68
2020/12/17 00:54:40;;;;;;;25.88;2.58;;;;;;;10.02;100.00;101179.97;5093109;28;20040;-67
2020/12/17 00:57:07;;;;;;;16.75;2.28;;;;;;;10.01;100.00;101178.31;5093324;28;20064;-67
2020/12/17 00:59:32;;;;;;;18.73;2.67;;;;;;;10.03;100.00;101191.72;5093192;28;20124;-68
2020/12/17 01:01:58;;;;;;;19.63;2.53;;;;;;;10.04;100.00;101182.47;5093121;28;20063;-67
2020/12/17 01:04:24;;;;;;;20.23;2.50;;;;;;;10.04;100.00;101187.91;5091840;28;20526;-67
2020/12/17 01:06:50;;;;;;;23.38;3.33;;;;;;;10.06;100.00;101192.06;5093060;28;20122;-68
2020/12/17 01:09:15;;;;;;;30.73;3.03;;;;;;;10.08;100.00;101200.06;5092883;28;20105;-67
2020/12/17 01:11:41;;;;;;;14.70;1.73;;;;;;;10.08;100.00;101205.53;5093014;28;20058;-68
2020/12/17 01:14:06;;;;;;;31.85;3.63;;;;;;;10.10;100.00;101208.84;5092796;28;20044;-68
2020/12/17 01:16:32;;;;;;;19.85;2.13;;;;;;;10.11;100.00;101202.31;5093057;28;20079;-68
2020/12/17 01:18:58;;;;;;;18.90;2.47;;;;;;;10.11;100.00;101205.06;5093040;28;20044;-68
2020/12/17 01:21:24;;;;;;;20.23;2.85;;;;;;;10.12;100.00;101206.72;5092855;28;20040;-68
2020/12/17 01:23:49;;;;;;;16.48;2.40;;;;;;;10.13;100.00;101198.31;5092734;28;20117;-68
2020/12/17 01:26:15;;;;;;;26.10;3.38;;;;;;;10.15;100.00;101196.16;5092613;28;20042;-67
2020/12/17 01:28:41;;;;;;;23.65;2.63;;;;;;;10.17;100.00;101209.59;5092550;28;20036;-68
2020/12/17 01:31:07;;;;;;;18.50;2.38;;;;;;;10.16;100.00;101210.66;5092723;28;20177;-68
2020/12/17 01:33:33;;;;;;;22.40;4.20;;;;;;;10.15;100.00;101217.19;5092280;28;20040;-68
2020/12/17 01:36:10;;;;;;;22.45;3.58;;;;;;;10.15;100.00;101222.63;5092579;28;20035;-68
2020/12/17 01:38:37;;;;;;;16.00;2.45;;;;;;;10.16;100.00;101225.13;5092500;28;20060;-68
2020/12/17 01:41:04;;;;;;;25.05;3.22;;;;;;;10.17;100.00;101226.78;5091001;28;20040;-68
2020/12/17 01:43:40;;;;;;;25.83;2.75;;;;;;;10.18;100.00;101238.53;5092416;28;20043;-68
2020/12/17 01:46:06;;;;;;;16.45;2.15;;;;;;;10.18;100.00;101228.47;5092323;28;20032;-68
2020/12/17 01:48:32;;;;;;;21.65;2.45;;;;;;;10.18;100.00;101233.09;5091909;28;20070;-68
2020/12/17 01:50:58;;;;;;;21.70;2.55;;;;;;;10.20;100.00;101244.59;5092687;28;20131;-68
2020/12/17 01:53:24;;;;;;;14.60;1.92;;;;;;;10.22;100.00;101239.78;5092082;28;20047;-68
2020/12/17 01:55:56;;;;;;;22.17;3.40;;;;;;;10.26;100.00;101246.47;5090608;28;20040;-68
2020/12/17 01:58:26;;;;;;;18.50;1.92;;;;;;;10.26;100.00;101255.50;5092295;28;20032;-68
2020/12/17 02:00:54;;;;;;;13.75;1.35;;;;;;;10.26;100.00;101260.13;5092119;28;20046;-68
2020/12/17 02:03:20;;;;;;;12.90;1.10;;;;;;;10.23;100.00;101255.09;5091942;28;20124;-69
2020/12/17 02:05:46;;;;;;;14.18;1.67;;;;;;;10.25;100.00;101256.56;5091966;28;20051;-68
2020/12/17 02:08:15;;;;;;;10.95;1.75;;;;;;;10.25;100.00;101261.19;5091883;28;20043;-68
2020/12/17 02:10:41;;;;;;;16.10;2.10;;;;;;;10.23;100.00;101266.00;5092270;28;20043;-69
2020/12/17 02:13:07;;;;;;;10.63;1.30;;;;;;;10.18;100.00;101258.47;5091703;28;20429;-68
2020/12/17 02:15:32;;;;;;;11.38;1.42;;;;;;;10.16;100.00;101257.88;5091881;28;20481;-68
2020/12/17 02:17:58;;;;;;;16.52;1.75;;;;;;;10.15;100.00;101264.41;5091586;28;20390;-68
2020/12/17 02:20:23;;;;;;;10.52;1.27;;;;;;;10.13;100.00;101257.50;5090410;28;20036;-68
2020/12/17 02:22:49;;;;;;;13.07;1.85;;;;;;;10.12;100.00;101266.78;5091662;28;20532;-68
2020/12/17 02:25:15;;;;;;;12.77;1.40;;;;;;;10.12;100.00;101277.69;5091511;28;20125;-67
2020/12/17 02:27:42;;;;;;;11.98;1.35;;;;;;;10.11;100.00;101276.03;5091479;28;20043;-68
2020/12/17 02:30:10;;;;;;;10.95;1.13;;;;;;;10.11;100.00;101271.41;5091518;28;20039;-68
2020/12/17 02:32:36;;;;;;;12.45;1.23;;;;;;;10.12;100.00;101280.41;5091345;28;20051;-68
2020/12/17 02:35:03;;;;;;;13.60;1.23;;;;;;;10.11;100.00;101278.75;5091495;28;20036;-67
2020/12/17 02:37:29;;;;;;;17.42;1.20;;;;;;;10.10;100.00;101285.28;5091270;28;20058;-67
2020/12/17 02:39:54;;;;;;;16.52;1.58;;;;;;;10.08;100.00;101287.41;5091224;28;20040;-68
2020/12/17 02:42:20;;;;;;;15.88;1.30;;;;;;;10.05;100.00;101282.38;5091406;28;20040;-68
2020/12/17 02:44:45;;;;;;;12.57;2.20;;;;;;;10.05;100.00;101293.28;5090009;28;20437;-68
2020/12/17 02:47:11;;;;;;;16.13;2.03;;;;;;;10.02;100.00;101291.03;5090574;28;20398;-68
2020/12/17 02:49:37;;;;;;;12.30;1.30;;;;;;;10.04;100.00;101291.63;5091026;28;20066;-68
2020/12/17 02:52:03;;;;;;;13.95;1.30;;;;;;;10.03;100.00;101295.41;5091222;28;20118;-67
2020/12/17 02:54:29;;;;;;;12.40;1.88;;;;;;;10.02;100.00;101304.66;5090883;28;20119;-67
2020/12/17 02:56:54;;;;;;;19.77;2.60;;;;;;;10.01;100.00;101301.09;5091215;28;20519;-68
2020/12/17 02:59:20;;;;;;;14.10;2.15;;;;;;;10.02;100.00;101312.84;5091105;28;20076;-68
2020/12/17 03:01:46;;;;;;;16.75;2.05;;;;;;;10.01;100.00;101309.28;5089710;28;20402;-68
2020/12/17 03:04:11;;;;;;;15.80;1.85;;;;;;;10.03;100.00;101312.63;5091121;28;20494;-68
2020/12/17 03:06:37;;;;;;;13.80;1.48;;;;;;;10.04;100.00;101314.28;5090975;28;20761;-68
2020/12/17 03:09:05;;;;;;;21.52;1.92;;;;;;;10.03;100.00;101320.81;5090804;28;20439;-67
2020/12/17 03:11:30;;;;;;;13.40;2.05;;;;;;;10.04;100.00;101313.44;5090970;28;20028;-69
2020/12/17 03:13:56;;;;;;;16.65;1.73;;;;;;;10.04;100.00;101318.91;5090788;28;20088;-68
2020/12/17 03:16:22;;;;;;;15.57;2.25;;;;;;;10.06;100.00;101317.63;5090789;28;20070;-68
2020/12/17 03:18:47;;;;;;;15.00;1.90;;;;;;;10.07;100.00;101315.75;5090741;28;20051;-68
2020/12/17 03:21:13;;;;;;;7.32;1.42;;;;;;;10.08;100.00;101311.97;5090832;28;20031;-68
2020/12/17 03:23:39;;;;;;;14.00;2.08;;;;;;;10.08;100.00;101322.88;5090778;28;20062;-67
2020/12/17 03:26:05;;;;;;;14.90;1.88;;;;;;;10.08;100.00;101311.97;5091121;28;20032;-68
2020/12/17 03:28:35;;;;;;;15.82;2.03;;;;;;;10.08;100.00;101325.63;5090999;28;20040;-67
2020/12/17 03:31:00;;;;;;;11.50;1.90;;;;;;;10.08;100.00;101322.88;5090701;28;20032;-67
2020/12/17 03:33:26;;;;;;;17.10;2.88;;;;;;;10.09;100.00;101328.09;5090680;28;20402;-67
2020/12/17 03:35:52;;;;;;;16.00;2.35;;;;;;;10.08;100.00;101328.34;5090697;28;20123;-68
2020/12/17 03:38:17;;;;;;;15.18;1.95;;;;;;;10.05;100.00;101326.03;5090522;28;20455;-68
2020/12/17 03:40:43;;;;;;;9.23;1.17;;;;;;;10.04;100.00;101333.38;5090789;28;20501;-67
2020/12/17 03:43:09;;;;;;;18.23;1.63;;;;;;;10.03;100.00;101334.47;5090671;28;20024;-68
2020/12/17 03:45:35;;;;;;;13.40;1.75;;;;;;;10.02;100.00;101332.78;5090462;28;20040;-67
2020/12/17 03:48:00;;;;;;;12.82;2.30;;;;;;;10.02;100.00;101340.13;5090613;28;20047;-68
2020/12/17 03:50:26;;;;;;;11.95;1.70;;;;;;;10.01;100.00;101333.00;5089155;28;20120;-68
2020/12/17 03:52:52;;;;;;;17.65;2.25;;;;;;;10.02;100.00;101331.94;5090334;28;20372;-68
2020/12/17 03:55:17;;;;;;;11.65;2.38;;;;;;;10.01;100.00;101336.59;5090527;28;20069;-68
2020/12/17 03:57:43;;;;;;;19.40;2.30;;;;;;;10.02;100.00;101337.41;5089299;28;20036;-68
2020/12/17 04:00:08;;;;;;;13.18;2.25;;;;;;;10.02;100.00;101342.88;5094226;28;20482;-68
2020/12/17 04:02:34;;;;;;;18.13;2.30;;;;;;;10.01;100.00;101341.22;5094382;28;20105;-68
2020/12/17 04:05:00;;;;;;;22.38;3.17;;;;;;;10.00;100.00;101350.44;5093082;28;20127;-68
2020/12/17 04:07:26;;;;;;;20.52;2.17;;;;;;;9.97;100.00;101358.03;5094026;28;20036;-69
2020/12/17 04:09:51;;;;;;;20.60;2.10;;;;;;;9.97;100.00;101363.50;5094434;28;20397;-68
2020/12/17 04:12:17;;;;;;;21.50;2.45;;;;;;;9.97;100.00;101363.50;5094231;28;20408;-68
2020/12/17 04:14:43;;;;;;;18.38;3.28;;;;;;;9.97;100.00;101363.50;5093994;28;20512;-68
2020/12/17 04:17:08;;;;;;;19.92;2.45;;;;;;;9.96;100.00;101361.81;5094069;28;20032;-68
2020/12/17 04:19:34;;;;;;;18.02;1.98;;;;;;;9.96;100.00;101366.44;5094078;28;20055;-68
2020/12/17 04:22:00;;;;;;;15.52;2.05;;;;;;;9.95;100.00;101371.06;5093852;28;20032;-67
2020/12/17 04:24:25;;;;;;;14.77;1.98;;;;;;;9.95;100.00;101368.34;5093930;28;20054;-68
2020/12/17 04:26:52;;;;;;;12.50;2.42;;;;;;;9.96;100.00;101367.28;5093806;28;20082;-68
2020/12/17 04:29:17;;;;;;;22.83;3.58;;;;;;;9.95;100.00;101368.34;5093733;28;20040;-67
2020/12/17 04:31:44;;;;;;;21.85;2.53;;;;;;;9.93;100.00;101373.19;5093992;28;20115;-68
2020/12/17 04:34:09;;;;;;;15.25;2.92;;;;;;;9.93;100.00;101378.66;5093629;28;20394;-68
2020/12/17 04:36:35;;;;;;;18.25;2.75;;;;;;;9.93;100.00;101378.66;5093565;28;20036;-67
2020/12/17 04:39:01;;;;;;;21.23;2.65;;;;;;;9.92;100.00;101368.81;5093736;28;20040;-68
2020/12/17 04:41:28;;;;;;;22.45;2.65;;;;;;;9.92;100.00;101376.16;5093637;28;20048;-68
2020/12/17 04:43:53;;;;;;;25.33;3.55;;;;;;;9.91;100.00;101375.31;5093351;28;20066;-68
2020/12/17 04:46:19;;;;;;;20.25;1.80;;;;;;;9.90;100.00;101384.56;5093574;28;20036;-67
2020/12/17 04:48:47;;;;;;;17.88;2.65;;;;;;;9.94;100.00;101388.50;5093205;28;20055;-68
2020/12/17 04:51:14;;;;;;;19.40;2.17;;;;;;;9.95;100.00;101392.91;5093343;28;20127;-67
2020/12/17 04:53:45;;;;;;;17.55;3.22;;;;;;;9.98;100.00;101392.44;5093407;28;20032;-67
2020/12/17 04:56:13;;;;;;;26.90;2.85;;;;;;;10.02;100.00;101405.63;5093377;28;20554;-69
2020/12/17 04:58:49;;;;;;;23.33;3.15;;;;;;;10.06;100.00;101404.13;5093009;28;20028;-68
2020/12/17 05:01:17;;;;;;;26.63;3.70;;;;;;;10.09;100.00;101403.69;5093335;28;20036;-68
2020/12/17 05:03:47;;;;;;;26.70;3.67;;;;;;;10.13;100.00;101407.63;5093254;28;20129;-67
2020/12/17 05:06:22;;;;;;;18.17;2.60;;;;;;;10.17;100.00;101408.84;5091713;28;20059;-68
2020/12/17 05:08:49;;;;;;;21.85;3.58;;;;;;;10.21;100.00;101399.16;5092697;28;20036;-67
2020/12/17 05:11:15;;;;;;;21.42;2.78;;;;;;;10.24;100.00;101407.78;5093155;28;20040;-68
2020/12/17 05:13:40;;;;;;;20.73;3.92;;;;;;;10.25;100.00;101405.88;5092743;28;20043;-67
2020/12/17 05:16:06;;;;;;;28.48;3.00;;;;;;;10.25;100.00;101405.88;5092895;28;20051;-68
2020/12/17 05:18:32;;;;;;;20.08;2.42;;;;;;;10.26;100.00;101405.66;5092954;28;20093;-67
2020/12/17 05:21:02;;;;;;;27.50;2.95;;;;;;;10.27;100.00;101406.47;5093033;28;20028;-68
2020/12/17 05:23:29;;;;;;;40.17;3.92;;;;;;;10.29;100.00;101409.81;5092862;28;20042;-67
2020/12/17 05:25:55;;;;;;;24.45;3.75;;;;;;;10.31;100.00;101418.63;5092847;28;20036;-68
2020/12/17 05:28:25;;;;;;;20.17;2.67;;;;;;;10.33;100.00;101411.03;5092542;28;20038;-67
2020/12/17 05:30:51;;;;;;;25.08;2.53;;;;;;;10.34;100.00;101422.78;5091213;28;20036;-68
2020/12/17 05:33:16;;;;;;;26.80;2.85;;;;;;;10.34;100.00;101429.06;5092522;28;20443;-67
2020/12/17 05:35:42;;;;;;;28.85;3.67;;;;;;;10.36;100.00;101437.03;5092533;28;20508;-67
2020/12/17 05:38:10;;;;;;;17.60;2.28;;;;;;;10.36;100.00;101432.41;5092852;28;20118;-68
2020/12/17 05:40:37;;;;;;;21.48;2.53;;;;;;;10.38;100.00;101430.28;5092565;28;20040;-68
2020/12/17 05:43:04;;;;;;;24.63;2.80;;;;;;;10.41;100.00;101437.19;5092336;28;20409;-68
2020/12/17 05:45:30;;;;;;;18.75;2.28;;;;;;;10.44;100.00;101439.50;5092404;28;20044;-68
2020/12/17 05:48:18;;;;;;;27.23;4.05;;;;;;;10.44;100.00;101445.78;5092309;28;20058;-68
2020/12/17 05:50:58;;;;;;;17.15;2.42;;;;;;;10.48;100.00;101457.91;5092071;28;20406;-67
2020/12/17 05:53:28;;;;;;;23.65;3.90;;;;;;;10.51;100.00;101452.00;5092226;28;20441;-68
2020/12/17 05:56:05;;;;;;;17.85;2.72;;;;;;;10.52;100.00;101461.03;5092301;28;20040;-68
2020/12/17 05:58:44;;;;;;;29.13;3.13;;;;;;;10.51;100.00;101452.00;5091958;28;20047;-68
2020/12/17 06:01:15;;;;;;;22.70;3.42;;;;;;;10.52;100.00;101464.59;5090895;28;20081;-68
2020/12/17 06:03:41;;;;;;;29.02;3.45;;;;;;;10.51;100.00;101462.09;5090644;28;20040;-68
2020/12/17 06:06:08;;;;;;;26.77;3.75;;;;;;;10.52;100.00;101469.22;5091719;28;20050;-69
2020/12/17 06:08:36;;;;;;;23.63;4.25;;;;;;;10.49;100.00;101470.50;5091901;28;20549;-67
2020/12/17 06:11:04;;;;;;;27.73;3.50;;;;;;;10.47;100.00;101475.38;5091997;28;20032;-67
2020/12/17 06:13:35;;;;;;;21.90;3.05;;;;;;;10.46;100.00;101481.91;5090293;28;20089;-67
2020/12/17 06:16:04;;;;;;;30.38;3.85;;;;;;;10.43;100.00;101486.97;5091962;28;20432;-67
2020/12/17 06:18:38;;;;;;;23.10;3.33;;;;;;;10.40;100.00;101488.22;5091610;28;20088;-68
2020/12/17 06:21:13;;;;;;;29.63;3.42;;;;;;;10.39;100.00;101481.09;5090878;28;20039;-68
2020/12/17 06:23:38;;;;;;;18.95;2.53;;;;;;;10.35;100.00;101482.63;5091662;28;20124;-68
2020/12/17 06:26:09;;;;;;;22.75;2.70;;;;;;;10.34;100.00;101483.69;5090439;28;20143;-68
2020/12/17 06:28:40;;;;;;;18.92;2.15;;;;;;;10.34;100.00;101483.69;5091376;28;20036;-68
2020/12/17 06:31:06;;;;;;;23.80;3.30;;;;;;;10.32;100.00;101491.28;5091608;28;20193;-68
2020/12/17 06:33:35;;;;;;;23.90;3.45;;;;;;;10.34;100.00;101491.88;5090212;28;20118;-67
2020/12/17 06:36:06;;;;;;;19.73;3.50;;;;;;;10.37;100.00;101491.41;5091298;28;20067;-68
2020/12/17 06:38:33;;;;;;;15.35;2.08;;;;;;;10.39;100.00;101496.66;5091359;28;20032;-68
2020/12/17 06:41:14;;;;;;;18.88;2.38;;;;;;;10.42;100.00;101505.25;5091430;28;20040;-68
2020/12/17 06:43:39;;;;;;;24.33;2.65;;;;;;;10.46;100.00;101503.75;5091365;28;20115;-68
2020/12/17 06:46:25;;;;;;;20.83;2.33;;;;;;;10.48;100.00;101501.63;5089921;28;20431;-68
2020/12/17 06:48:51;;;;;;;25.00;3.70;;;;;;;10.51;100.00;101501.16;5091016;28;20436;-68
2020/12/17 06:51:36;;;;;;;28.27;3.13;;;;;;;10.54;100.00;101505.34;5090538;28;20488;-67
2020/12/17 06:54:08;;;;;;;25.02;3.53;;;;;;;10.55;100.00;101507.84;5091096;28;20082;-68
2020/12/17 06:56:38;;;;;;;19.80;3.13;;;;;;;10.58;100.00;101509.28;5091175;28;20060;-68
2020/12/17 06:59:14;;;;;;;28.73;3.17;;;;;;;10.60;100.00;101514.53;5091020;28;20107;-68
2020/12/17 07:01:40;;;;;;;26.05;3.63;;;;;;;10.61;100.00;101516.22;5091218;28;20454;-67
2020/12/17 07:04:06;;;;;;;23.17;4.13;;;;;;;10.62;100.00;101520.59;5091152;28;20040;-68
2020/12/17 07:06:32;;;;;;;28.27;3.22;;;;;;;10.62;100.00;101528.81;5090870;28;20044;-68
2020/12/17 07:08:58;;;;;;;24.58;2.90;;;;;;;10.64;100.00;101516.59;5090937;28;20136;-69
2020/12/17 07:11:36;;;;;;;17.75;2.42;;;;;;;10.65;100.00;101522.88;5089592;28;20031;-67
2020/12/17 07:14:06;;;;;;;20.65;2.05;;;;;;;10.66;100.00;101524.56;5090697;28;20040;-67
2020/12/17 07:16:33;;;;;;;23.65;2.40;;;;;;;10.68;100.00;101533.34;5091116;28;20081;-67
2020/12/17 07:19:48;;;;;;;21.40;3.30;;;;;;;10.69;100.00;101533.13;5090824;28;20490;-68
2020/12/17 07:22:16;;;;;;;25.90;3.78;;;;;;;10.71;100.00;101532.91;5029526;28;20140;-68
2020/12/17 07:24:51;;;;;;;16.15;2.47;;;;;;;10.72;100.00;101540.03;5090915;28;20036;-68
2020/12/17 07:27:17;;;;;;;;;;;;;;;10.72;100.00;101540.88;5091035;28;20127;-68
2020/12/17 07:30:03;;;;;;;15.65;1.88;;;;;;;10.71;100.00;101533.72;5090787;28;19919;-67
2020/12/17 07:32:29;;;;;;;14.27;2.55;;;;;;;10.69;100.00;101538.59;5092211;28;20032;-67
2020/12/17 07:35:16;;;;;;;18.60;2.00;;;;;;;10.67;100.00;101546.19;5094777;28;20031;-67
2020/12/17 07:37:46;;;;;;;18.23;2.40;;;;;;;10.66;100.00;101551.88;5094715;28;20028;-68
2020/12/17 07:40:11;;;;;;;17.33;2.10;;;;;;;10.66;100.00;101562.81;5094883;28;20135;-67
2020/12/17 07:42:38;;;;;;;19.73;2.50;;;;;;;10.63;100.00;101555.06;5094591;28;20111;-67
2020/12/17 07:45:07;;;;;;;17.58;2.40;;;;;;;10.63;100.00;101558.63;5094828;28;20040;-68
2020/12/17 07:47:33;;;;;;;16.92;1.90;;;;;;;10.64;100.00;101567.66;5093317;28;20436;-68
2020/12/17 07:49:59;;;;;;;21.10;2.53;;;;;;;10.64;100.00;101571.22;5094605;28;20094;-67
2020/12/17 07:52:35;;;;;;;16.20;2.70;;;;;;;10.65;100.00;101583.00;5094374;28;20044;-67
2020/12/17 07:55:02;;;;;;;20.13;3.05;;;;;;;10.65;100.00;101580.25;5094565;28;20393;-68
2020/12/17 07:57:28;;;;;;;16.50;2.58;;;;;;;10.64;100.00;101586.78;5094203;28;20056;-68
2020/12/17 07:59:54;;;;;;;20.05;2.95;;;;;;;10.63;100.00;101585.13;5094461;28;20509;-68
2020/12/17 08:02:19;;;;;;;14.63;2.83;;;;;;;10.62;100.00;101588.91;5094338;28;20040;-68
2020/12/17 08:04:56;;;;;;;15.88;3.28;;;;;;;10.64;100.00;101586.78;5094203;28;20040;-68
2020/12/17 08:07:22;;;;;;;23.15;2.90;;;;;;;10.62;100.00;101583.44;5094256;28;20040;-68
2020/12/17 08:10:01;;;;;;;22.02;2.80;;;;;;;10.58;100.00;101586.59;5092884;28;20452;-68
2020/12/17 08:12:27;;;;;;;20.27;3.42;;;;;;;10.57;100.00;101598.59;5092632;28;20051;-68
2020/12/17 08:14:53;;;;;;;23.77;3.08;;;;;;;10.55;100.00;101592.50;5094149;28;20036;-67
2020/12/17 08:17:20;;;;;;;26.83;3.47;;;;;;;10.52;100.00;101601.16;5093984;28;20040;-68
2020/12/17 08:19:58;;;;;;;26.60;4.05;;;;;;;10.52;100.00;101590.22;5093885;28;20034;-68
2020/12/17 08:22:28;;;;;;;25.60;4.10;;;;;;;10.52;100.00;101601.16;5094053;28;20267;-68
2020/12/17 08:24:54;;;;;;;15.10;2.58;;;;;;;10.52;100.00;101601.16;5094004;28;20502;-68
2020/12/17 08:27:22;;;;;;;31.83;4.05;;;;;;;10.52;100.00;101600.31;5093787;28;20081;-68
2020/12/17 08:29:48;;;;;;;20.33;2.90;;;;;;;10.53;100.00;101605.56;5093849;28;20081;-68
2020/12/17 08:32:14;;;;;;;28.02;2.92;;;;;;;10.55;100.00;101602.59;5093823;28;20044;-68
2020/12/17 08:34:53;;;;;;;24.75;2.92;;;;;;;10.56;100.00;101607.84;5093506;28;20048;-67
2020/12/17 08:37:20;;;;;;;31.88;4.25;;;;;;;10.58;100.00;101611.19;5092293;28;20046;-69
2020/12/17 08:39:55;;;;;;;26.60;3.63;;;;;;;10.63;100.00;101609.69;5093879;28;20032;-68
2020/12/17 08:42:22;;;;;;;27.90;3.65;;;;;;;10.65;100.00;101613.88;5093511;28;20036;-67
2020/12/17 08:44:48;;;;;;;28.73;3.63;;;;;;;10.69;100.00;101617.00;5092843;28;20217;-68
2020/12/17 08:47:14;;;;;;;35.00;3.50;;;;;;;10.74;100.00;101619.88;5093329;28;20040;-67
2020/12/17 08:49:43;;;;;;;27.27;3.90;;;;;;;10.79;100.00;101622.78;5094651;28;20040;-68
2020/12/17 08:52:09;;;;;;;25.00;3.67;;;;;;;10.84;100.00;101625.69;5094761;27;20044;-74
2020/12/17 08:54:37;;;;;;;30.98;3.63;;;;;;;10.87;100.00;101625.22;5093527;28;20043;-71
2020/12/17 08:57:08;;;;;;;22.63;3.55;;;;;;;10.94;100.00;101625.19;5093192;28;20040;-73
2020/12/17 08:59:34;;;;;;;28.05;4.40;;;;;;;10.98;100.00;101627.22;5093695;28;20137;-73
2020/12/17 09:02:00;;;;;;;29.48;3.75;;;;;;;11.03;100.00;101624.66;5095420;28;20036;-71
2020/12/17 09:04:26;;;;;;;30.00;4.95;;;;;;;11.09;100.00;101631.94;5093001;28;20465;-69
2020/12/17 09:06:54;;;;;;;29.77;4.38;;;;;;;11.16;100.00;101642.81;5092991;28;20043;-70
2020/12/17 09:09:25;;;;;;;33.05;4.05;;;;;;;11.23;100.00;101634.53;5092910;28;20040;-69
2020/12/17 09:11:52;;;;;;;29.50;4.47;;;;;;;11.32;100.00;101635.91;5093021;28;20031;-67
2020/12/17 09:14:21;;;;;;;25.15;3.85;;;;;;;11.39;100.00;101647.59;5092966;28;20072;-68
2020/12/17 09:16:51;;;;;;;20.27;2.83;;;;;;;11.44;100.00;101642.28;5093072;28;20032;-67
2020/12/17 09:19:17;;;;;;;29.88;3.50;;;;;;;11.48;100.00;101638.88;5092751;28;20081;-68
2020/12/17 09:21:59;;;;;;;33.65;4.18;;;;;;;11.54;100.00;101641.75;5092790;28;20111;-70
2020/12/17 09:24:29;;;;;;;29.85;4.10;;;;;;;11.60;100.00;101658.06;5092730;28;20043;-69
2020/12/17 09:27:13;;;;;;;33.72;3.60;;;;;;;11.61;100.00;101665.22;5092804;28;20040;-68
2020/12/17 09:29:39;;;;;;;27.52;3.90;;;;;;;11.66;100.00;101668.13;5092788;28;20059;-69
2020/12/17 09:32:19;;;;;;;25.15;3.80;;;;;;;11.69;100.00;101669.56;5092786;28;20043;-71
2020/12/17 09:34:45;;;;;;;30.13;3.58;;;;;;;11.72;100.00;101667.19;5092505;28;20029;-70
2020/12/17 09:37:12;;;;;;;31.35;4.85;;;;;;;11.80;100.00;101668.81;5092378;28;20032;-70
2020/12/17 09:39:46;;;;;;;31.70;4.05;;;;;;;11.89;100.00;101688.50;5092478;28;20047;-71
2020/12/17 09:42:16;;;;;;;27.30;4.45;;;;;;;11.91;100.00;101679.00;5092359;28;20036;-70
2020/12/17 09:44:42;;;;;;;33.30;4.25;;;;;;;11.93;100.00;101689.72;5091128;28;20052;-70
2020/12/17 09:47:08;;;;;;;28.90;4.57;;;;;;;11.93;100.00;101685.06;5092165;28;20466;-70
2020/12/17 09:49:39;;;;;;;28.90;3.97;;;;;;;11.91;100.00;101681.72;5090942;28;20501;-70
2020/12/17 09:52:10;;;;;;;27.75;3.15;;;;;;;11.92;100.00;101688.03;5091859;28;20081;-70
2020/12/17 09:54:41;;;;;;;32.25;3.83;;;;;;;11.89;100.00;101691.25;5091617;28;20059;-70
2020/12/17 09:57:13;;;;;;;38.67;5.07;;;;;;;11.89;100.00;101702.19;5090925;28;20032;-70
2020/12/17 09:59:40;;;;;;;33.83;4.82;;;;;;;11.90;100.00;101701.13;5090751;28;20047;-70
2020/12/17 10:02:08;;;;;;;45.28;5.18;;;;;;;11.91;100.00;101689.09;5091988;28;20272;-70
2020/12/17 10:04:34;;;;;;;27.08;4.18;;;;;;;11.93;100.00;101706.13;5092079;28;20493;-70
2020/12/17 10:07:00;;;;;;;33.90;4.47;;;;;;;11.95;100.00;101704.00;5091923;28;20043;-70
2020/12/17 10:09:28;;;;;;;34.88;3.35;;;;;;;11.94;100.00;101694.94;5091677;28;20051;-70
2020/12/17 10:11:55;;;;;;;38.35;5.15;;;;;;;11.97;100.00;101707.34;5091819;28;20524;-70
2020/12/17 10:14:22;;;;;;;42.70;4.28;;;;;;;12.00;100.00;101712.38;5091594;28;20032;-70
2020/12/17 10:16:48;;;;;;;28.90;4.55;;;;;;;12.04;100.00;101721.78;5090239;28;20039;-70
2020/12/17 10:19:16;;;;;;;38.40;4.15;;;;;;;12.11;100.00;101724.44;5091747;28;20046;-70
2020/12/17 10:21:42;;;;;;;37.30;4.53;;;;;;;12.18;100.00;101719.72;5091904;28;20097;-70
2020/12/17 10:24:08;;;;;;;29.35;3.63;;;;;;;12.24;100.00;101719.63;5091443;28;20028;-70
2020/12/17 10:26:33;;;;;;;21.85;3.35;;;;;;;12.33;100.00;101726.47;5091611;28;20120;-70
2020/12/17 10:28:59;;;;;;;29.67;3.45;;;;;;;12.39;100.00;101727.44;5091584;28;20044;-70
2020/12/17 10:31:27;;;;;;;33.08;4.25;;;;;;;12.51;100.00;101727.47;5091430;28;20028;-67
2020/12/17 10:33:53;;;;;;;34.10;4.35;;;;;;;12.59;100.00;101721.66;5091245;28;20071;-68
2020/12/17 10:36:19;;;;;;;30.73;4.78;;;;;;;12.62;100.00;101715.69;5091629;28;20535;-68
2020/12/17 10:38:44;;;;;;;25.17;3.33;;;;;;;12.63;100.00;101718.19;5091533;28;20040;-68
2020/12/17 10:41:11;;;;;;;22.15;3.78;;;;;;;12.68;100.00;101720.25;5090002;28;20126;-68
2020/12/17 10:43:37;;;;;;;20.23;3.83;;;;;;;12.73;100.00;101723.13;5091736;28;20331;-68
2020/12/17 10:46:03;;;;;;;38.97;4.15;;;;;;;12.75;100.00;101710.00;5091426;28;20039;-68
2020/12/17 10:48:28;;;;;;;32.75;3.88;;;;;;;12.80;100.00;101723.84;5091069;28;20040;-68
2020/12/17 10:50:54;;;;;;;31.20;5.13;;;;;;;12.84;100.00;101718.72;5091408;28;20764;-68
2020/12/17 10:53:20;;;;;;;36.28;4.97;;;;;;;12.89;100.00;101727.94;5091199;28;20537;-69
2020/12/17 10:55:46;;;;;;;29.75;3.55;;;;;;;12.88;100.00;101734.47;5091068;28;20139;-68
2020/12/17 10:58:12;;;;;;;33.13;5.10;;;;;;;12.80;100.00;101718.34;5091182;28;20040;-68
2020/12/17 11:00:39;;;;;;;36.33;4.90;;;;;;;12.73;100.00;101716.81;5091188;28;20432;-68
2020/12/17 11:03:07;;;;;;;24.80;4.57;;;;;;;12.61;100.00;101719.50;5090999;28;20131;-68
2020/12/17 11:05:35;;;;;;;27.30;3.70;;;;;;;12.55;100.00;101725.94;5091170;28;20039;-68
2020/12/17 11:08:00;;;;;;;35.88;4.72;;;;;;;12.53;100.00;101733.56;5090635;28;20039;-68
2020/12/17 11:10:26;;;;;;;39.78;4.97;;;;;;;12.47;100.00;101726.25;5091010;28;20455;-68
2020/12/17 11:12:51;;;;;;;36.97;4.38;;;;;;;12.49;100.00;101724.09;5090932;28;20474;-66